Time;durP1;ratioP1;P1;durP2;ratioP2;P2;SDS_P1;SDS_P2;PMS_P1;PMS_P2;Temp;Humidity;BMP_temperature;BMP_pressure;BME280_temperature;BME280_humidity;BME280_pressure;Samples;Min_cycle;Max_cycle;Signal;HPM_P1;HPM_P2
2022/04/24 00:01:52;;;;;;;28.07;23.17;;;;;;;9.24;100.00;94392.03;5071960;27;104843;-65
2022/04/24 00:04:19;;;;;;;31.30;25.53;;;;;;;9.12;100.00;94397.78;5071693;27;103778;-65
2022/04/24 00:06:47;;;;;;;29.83;25.70;;;;;;;9.18;100.00;94395.84;5071379;27;101805;-65
2022/04/24 00:09:16;;;;;;;31.70;26.13;;;;;;;9.11;100.00;94387.47;5071861;27;104893;-65
2022/04/24 00:11:45;;;;;;;29.43;24.47;;;;;;;9.03;100.00;94390.75;5071536;27;105704;-65
2022/04/24 00:14:12;;;;;;;30.47;25.30;;;;;;;9.03;100.00;94396.88;5075030;27;102413;-65
2022/04/24 00:16:39;;;;;;;30.13;24.93;;;;;;;8.93;100.00;94396.22;5090139;27;102576;-65
2022/04/24 00:19:07;;;;;;;32.17;25.97;;;;;;;8.88;100.00;94394.44;5089640;27;101878;-65
2022/04/24 00:21:35;;;;;;;31.40;25.23;;;;;;;8.93;100.00;94398.88;5090640;27;102461;-65
2022/04/24 00:24:02;;;;;;;32.40;26.27;;;;;;;8.91;100.00;94399.19;5089973;27;101856;-65
2022/04/24 00:26:29;;;;;;;30.27;24.63;;;;;;;8.92;100.00;94389.34;5090508;27;102040;-65
2022/04/24 00:28:58;;;;;;;34.13;26.47;;;;;;;8.96;100.00;94391.16;5090232;27;102549;-65
2022/04/24 00:31:25;;;;;;;35.20;26.83;;;;;;;9.00;100.00;94397.44;5089851;27;102727;-65
2022/04/24 00:33:52;;;;;;;33.07;25.97;;;;;;;9.06;100.00;94395.50;5058072;27;101832;-65
2022/04/24 00:36:19;;;;;;;33.20;26.57;;;;;;;9.07;100.00;94392.56;5070810;27;104816;-65
2022/04/24 00:38:46;;;;;;;32.63;26.93;;;;;;;9.09;100.00;94392.25;5071499;27;101856;-65
2022/04/24 00:41:14;;;;;;;32.07;27.20;;;;;;;9.13;100.00;94385.31;5071669;27;104909;-65
2022/04/24 00:43:41;;;;;;;36.87;28.37;;;;;;;9.14;100.00;94373.63;5071164;27;106000;-65
2022/04/24 00:46:42;;;;;;;35.40;26.93;;;;;;;9.15;100.00;94367.22;5071305;27;101930;-65
2022/04/24 00:49:10;;;;;;;34.00;26.80;;;;;;;9.19;100.00;94360.28;5071382;27;105164;-65
2022/04/24 00:51:38;;;;;;;34.30;27.50;;;;;;;9.12;100.00;94351.94;5070790;27;105635;-65
2022/04/24 00:54:08;;;;;;;38.03;27.93;;;;;;;9.06;100.00;94342.47;5071209;27;101893;-65
2022/04/24 00:56:34;;;;;;;38.70;29.73;;;;;;;9.05;100.00;94338.25;5074606;27;105076;-65
2022/04/24 00:59:04;;;;;;;34.50;28.53;;;;;;;8.97;100.00;94304.44;5071362;27;102007;-65
2022/04/24 01:01:32;;;;;;;36.87;27.20;;;;;;;9.00;100.00;94287.97;5071130;27;105038;-65
2022/04/24 01:04:05;;;;;;;34.10;27.83;;;;;;;8.96;100.00;94293.09;5089415;27;103226;-65
2022/04/24 01:06:33;;;;;;;34.07;26.83;;;;;;;8.89;100.00;94305.13;5071390;27;102342;-65
2022/04/24 01:09:13;;;;;;;34.80;27.23;;;;;;;8.93;100.00;94322.81;5070875;27;105256;-65
2022/04/24 01:11:40;;;;;;;32.03;26.07;;;;;;;8.88;100.00;94320.22;5070723;27;104458;-65
2022/04/24 01:14:08;;;;;;;35.90;27.90;;;;;;;8.85;100.00;94317.38;5070830;27;101983;-65
2022/04/24 01:16:35;;;;;;;34.80;27.60;;;;;;;8.91;100.00;94321.50;5071271;27;104746;-65
2022/04/24 01:19:05;;;;;;;36.13;28.40;;;;;;;8.95;100.00;94322.53;5092699;27;102422;-65
2022/04/24 01:21:34;;;;;;;32.93;27.33;;;;;;;8.89;100.00;94316.50;5091836;27;105021;-65
2022/04/24 01:24:05;;;;;;;33.33;26.97;;;;;;;8.92;100.00;94317.78;5092967;27;102624;-65
2022/04/24 01:26:32;;;;;;;34.93;27.93;;;;;;;8.78;100.00;94320.38;5093391;27;102034;-65
2022/04/24 01:28:59;;;;;;;33.60;26.80;;;;;;;8.85;100.00;94327.97;5074340;27;103771;-65
2022/04/24 01:31:26;;;;;;;34.53;26.67;;;;;;;8.89;100.00;94323.69;5092843;27;102756;-65
2022/04/24 01:33:53;;;;;;;36.70;28.27;;;;;;;8.92;100.00;94315.94;5093097;27;101694;-65
2022/04/24 01:36:20;;;;;;;36.50;28.73;;;;;;;8.92;100.00;94326.53;5092868;27;102903;-65
2022/04/24 01:38:49;;;;;;;35.73;27.50;;;;;;;8.96;100.00;94335.50;5092608;27;102644;-65
2022/04/24 01:41:16;;;;;;;34.60;26.73;;;;;;;8.87;100.00;94342.50;5096274;27;101844;-65
2022/04/24 01:43:43;;;;;;;36.37;28.17;;;;;;;8.93;100.00;94349.31;5073632;27;103913;-65
2022/04/24 01:46:11;;;;;;;32.93;26.33;;;;;;;8.89;100.00;94331.63;5074295;27;102563;-65
2022/04/24 01:48:38;;;;;;;33.60;26.73;;;;;;;8.95;100.00;94330.47;5074366;27;103682;-65
2022/04/24 01:51:06;;;;;;;33.70;25.90;;;;;;;8.81;100.00;94326.97;5092288;27;103132;-65
2022/04/24 01:53:34;;;;;;;32.73;26.13;;;;;;;8.87;100.00;94325.81;5092521;27;101679;-65
2022/04/24 01:56:04;;;;;;;30.30;24.33;;;;;;;8.86;100.00;94316.28;5092837;27;102394;-65
2022/04/24 01:58:32;;;;;;;33.47;26.93;;;;;;;8.88;100.00;94320.22;5090546;27;105482;-65
2022/04/24 02:00:59;;;;;;;32.93;26.53;;;;;;;8.76;100.00;94327.84;5073884;27;101952;-65
2022/04/24 02:03:27;;;;;;;32.40;25.87;;;;;;;8.70;100.00;94317.59;5077047;27;104853;-65
2022/04/24 02:05:55;;;;;;;29.30;24.30;;;;;;;8.60;100.00;94286.75;5073665;27;101936;-65
2022/04/24 02:08:22;;;;;;;29.97;24.80;;;;;;;8.57;100.00;94258.19;5092230;27;104306;-65
2022/04/24 02:10:50;;;;;;;32.00;24.50;;;;;;;8.52;100.00;94244.25;5073525;27;104321;-65
2022/04/24 02:13:19;;;;;;;29.73;23.20;;;;;;;8.29;100.00;94231.91;5092315;27;101830;-65
2022/04/24 02:15:46;;;;;;;30.83;24.47;;;;;;;8.32;100.00;94236.63;5073876;27;105217;-65
2022/04/24 02:18:13;;;;;;;29.60;23.70;;;;;;;8.18;100.00;94249.00;5091833;27;102710;-65
2022/04/24 02:20:40;;;;;;;36.33;28.20;;;;;;;8.13;100.00;94271.00;5091637;27;102002;-65
2022/04/24 02:23:08;;;;;;;35.03;28.17;;;;;;;8.05;100.00;94294.69;5074282;27;102380;-65
2022/04/24 02:25:35;;;;;;;37.67;28.57;;;;;;;8.07;100.00;94313.72;5095106;27;102621;-65
2022/04/24 02:28:02;;;;;;;39.37;29.30;;;;;;;8.12;100.00;94318.97;5091596;27;102960;-65
2022/04/24 02:30:32;;;;;;;39.03;28.57;;;;;;;8.15;100.00;94327.13;5072603;27;105340;-65
2022/04/24 02:33:00;;;;;;;37.40;28.77;;;;;;;8.18;100.00;94331.81;5092314;27;102226;-65
2022/04/24 02:35:28;;;;;;;35.53;27.50;;;;;;;8.12;100.00;94313.66;5091643;27;104184;-65
2022/04/24 02:37:55;;;;;;;33.17;26.20;;;;;;;7.87;100.00;94308.69;5091427;27;102802;-65
2022/04/24 02:40:23;;;;;;;34.90;25.80;;;;;;;7.94;100.00;94291.38;5073224;27;101811;-65
2022/04/24 02:42:51;;;;;;;30.57;24.73;;;;;;;7.91;100.00;94285.88;5056246;27;105581;-65
2022/04/24 02:45:19;;;;;;;32.23;25.50;;;;;;;7.85;100.00;94292.31;5094987;27;103071;-65
2022/04/24 02:47:48;;;;;;;31.77;24.37;;;;;;;7.79;100.00;94301.38;5091969;27;102816;-65
2022/04/24 02:50:16;;;;;;;36.60;27.67;;;;;;;7.71;100.00;94294.88;5091007;27;102620;-65
2022/04/24 02:52:47;;;;;;;34.33;26.60;;;;;;;7.57;100.00;94306.38;5092164;27;101993;-65
2022/04/24 02:55:14;;;;;;;34.40;26.70;;;;;;;7.54;100.00;94322.81;5072942;27;105725;-65
2022/04/24 02:57:42;;;;;;;34.83;26.83;;;;;;;7.63;100.00;94324.56;5091236;27;102727;-65
2022/04/24 03:00:10;;;;;;;39.03;27.80;;;;;;;7.64;100.00;94325.38;5091531;27;101839;-65
2022/04/24 03:02:42;;;;;;;34.53;26.40;;;;;;;7.71;100.00;94317.88;5091605;27;102390;-65
2022/04/24 03:05:14;;;;;;;34.17;26.77;;;;;;;7.59;100.00;94306.91;5090696;27;103135;-65
2022/04/24 03:07:41;;;;;;;32.07;23.80;;;;;;;7.45;100.00;94306.00;5095365;27;101665;-65
2022/04/24 03:10:09;;;;;;;29.60;23.90;;;;;;;7.26;100.00;94313.06;5072354;27;104412;-65
2022/04/24 03:12:37;;;;;;;28.97;23.77;;;;;;;7.15;100.00;94307.09;5090208;27;101768;-65
2022/04/24 03:15:05;;;;;;;31.90;24.53;;;;;;;6.97;100.00;94296.44;5091364;27;102447;-65
2022/04/24 03:17:33;;;;;;;34.73;25.13;;;;;;;6.86;100.00;94300.22;5072107;27;104143;-65
2022/04/24 03:20:00;;;;;;;32.13;25.67;;;;;;;6.86;100.00;94298.38;5090884;27;101853;-65
2022/04/24 03:22:30;;;;;;;34.37;25.97;;;;;;;6.94;100.00;94299.63;5091634;27;102888;-65
2022/04/24 03:24:57;;;;;;;33.83;26.27;;;;;;;7.06;100.00;94294.75;5091176;27;102619;-65
2022/04/24 03:27:24;;;;;;;33.97;27.23;;;;;;;7.16;100.00;94292.84;5072491;27;101910;-65
2022/04/24 03:29:51;;;;;;;33.90;26.97;;;;;;;7.21;100.00;94291.97;5075449;27;103595;-65
2022/04/24 03:32:19;;;;;;;35.20;26.77;;;;;;;7.29;100.00;94292.16;5091120;27;101774;-65
2022/04/24 03:34:46;;;;;;;36.87;28.67;;;;;;;7.32;100.00;94298.75;5072320;27;106904;-65
2022/04/24 03:37:13;;;;;;;36.80;26.07;;;;;;;7.42;100.00;94301.28;5090268;27;102647;-65
2022/04/24 03:39:41;;;;;;;36.17;29.17;;;;;;;7.46;100.00;94299.63;5091085;27;101762;-65
2022/04/24 03:42:09;;;;;;;34.77;27.13;;;;;;;7.47;100.00;94290.66;5089893;27;102466;-65
2022/04/24 03:44:36;;;;;;;36.47;27.57;;;;;;;7.49;100.00;94301.72;5090485;27;103290;-65
2022/04/24 03:47:03;;;;;;;38.97;28.33;;;;;;;7.43;100.00;94297.56;5072189;27;101932;-65
2022/04/24 03:49:31;;;;;;;36.30;28.20;;;;;;;7.40;100.00;94300.75;5090939;27;102710;-65
2022/04/24 03:51:58;;;;;;;36.37;27.60;;;;;;;7.45;100.00;94300.69;5092206;27;103827;-65
2022/04/24 03:54:25;;;;;;;39.70;29.67;;;;;;;7.44;100.00;94299.13;5091021;27;102427;-65
2022/04/24 03:56:54;;;;;;;36.40;27.60;;;;;;;7.33;100.00;94298.47;5071409;27;105480;-65
2022/04/24 03:59:21;;;;;;;34.43;26.47;;;;;;;7.36;100.00;94297.88;5072114;27;102045;-65
2022/04/24 04:01:49;;;;;;;38.10;27.73;;;;;;;7.27;100.00;94301.44;5072186;27;104750;-65
2022/04/24 04:04:16;;;;;;;37.17;27.93;;;;;;;7.31;100.00;94311.16;5071736;27;105011;-65
2022/04/24 04:06:43;;;;;;;36.07;26.40;;;;;;;7.29;100.00;94310.66;5088722;27;101836;-65
2022/04/24 04:09:10;;;;;;;38.00;27.73;;;;;;;7.35;100.00;94324.59;5072115;27;105774;-65
2022/04/24 04:11:37;;;;;;;37.97;27.70;;;;;;;7.38;100.00;94310.84;5071389;27;105677;-65
2022/04/24 04:14:07;;;;;;;32.87;23.53;;;;;;;7.53;100.00;94323.91;5094087;27;102311;-65
2022/04/24 04:16:34;;;;;;;29.87;22.53;;;;;;;7.65;100.00;94319.00;5071325;27;105700;-65
2022/04/24 04:19:01;;;;;;;25.30;19.43;;;;;;;7.77;100.00;94325.47;5071583;27;102079;-65
2022/04/24 04:21:28;;;;;;;17.60;14.10;;;;;;;8.03;100.00;94313.50;5089056;27;103595;-65
2022/04/24 04:23:55;;;;;;;11.80;10.03;;;;;;;8.75;100.00;94317.53;5089892;27;102447;-65
2022/04/24 04:26:22;;;;;;;10.23;8.10;;;;;;;9.11;100.00;94313.25;5071659;27;101839;-65
2022/04/24 04:28:50;;;;;;;5.00;4.47;;;;;;;9.77;100.00;94305.66;5089473;27;104783;-65
2022/04/24 04:31:20;;;;;;;3.03;2.83;;;;;;;10.37;100.00;94315.81;5072055;27;105488;-65
2022/04/24 04:33:47;;;;;;;3.27;2.57;;;;;;;10.69;100.00;94325.50;5071534;27;102181;-65
2022/04/24 04:36:14;;;;;;;2.20;2.10;;;;;;;10.82;100.00;94336.09;5075285;27;103578;-65
2022/04/24 04:38:41;;;;;;;2.73;2.17;;;;;;;11.13;100.00;94365.41;5072327;27;102133;-65
2022/04/24 04:41:08;;;;;;;3.03;2.50;;;;;;;11.09;100.00;94385.72;5089917;27;105207;-65
2022/04/24 04:43:35;;;;;;;6.77;4.37;;;;;;;10.86;100.00;94392.09;5090311;27;102749;-65
2022/04/24 04:46:02;;;;;;;10.70;9.17;;;;;;;10.40;100.00;94405.56;5091003;27;101859;-65
2022/04/24 04:48:31;;;;;;;13.20;11.43;;;;;;;10.23;100.00;94417.88;5072490;27;105522;-65
2022/04/24 04:50:58;;;;;;;14.60;12.60;;;;;;;10.12;100.00;94421.81;5070480;27;105539;-65
2022/04/24 04:53:25;;;;;;;16.23;12.77;;;;;;;10.03;100.00;94431.53;5091427;27;101769;-65
2022/04/24 04:55:53;;;;;;;15.23;13.63;;;;;;;9.97;100.00;94438.00;5096756;27;101812;-65
2022/04/24 04:58:20;;;;;;;17.13;14.50;;;;;;;9.93;100.00;94439.66;5092082;27;102020;-65
2022/04/24 05:00:47;;;;;;;16.67;13.87;;;;;;;9.94;100.00;94450.00;5093305;27;102834;-65
2022/04/24 05:03:14;;;;;;;17.20;14.33;;;;;;;9.93;100.00;94447.63;5093261;27;103053;-65
2022/04/24 05:05:43;;;;;;;16.53;14.53;;;;;;;9.89;100.00;94458.03;5093214;27;101872;-65
2022/04/24 05:08:10;;;;;;;16.57;14.53;;;;;;;9.94;100.00;94455.31;5074935;27;105633;-65
2022/04/24 05:10:37;;;;;;;17.77;14.50;;;;;;;9.92;100.00;94457.44;5074500;27;105033;-65
2022/04/24 05:13:04;;;;;;;16.37;14.57;;;;;;;9.95;100.00;94451.56;5093714;27;102023;-65
2022/04/24 05:15:31;;;;;;;16.50;13.73;;;;;;;9.99;100.00;94457.06;5093089;27;102063;-65
2022/04/24 05:17:58;;;;;;;18.07;15.20;;;;;;;10.01;100.00;94460.22;5077899;27;105431;-65
2022/04/24 05:20:25;;;;;;;17.20;14.33;;;;;;;10.02;100.00;94457.28;5091122;27;105192;-65
2022/04/24 05:23:05;;;;;;;17.10;14.73;;;;;;;10.00;100.00;94461.28;5074118;27;105129;-65
2022/04/24 05:25:32;;;;;;;17.17;13.80;;;;;;;10.01;100.00;94463.66;5093311;27;101766;-65
2022/04/24 05:28:00;;;;;;;16.67;13.67;;;;;;;10.00;100.00;94461.28;5074312;27;104864;-65
2022/04/24 05:30:28;;;;;;;17.73;15.17;;;;;;;10.05;100.00;94461.25;5092768;27;102639;-65
2022/04/24 05:32:55;;;;;;;16.73;14.53;;;;;;;10.12;100.00;94467.75;5074377;27;101880;-65
2022/04/24 05:35:23;;;;;;;18.40;15.53;;;;;;;10.30;100.00;94479.38;5092893;27;102510;-65
2022/04/24 05:37:51;;;;;;;17.13;14.37;;;;;;;10.51;100.00;94484.00;5074141;27;105356;-65
2022/04/24 05:40:20;;;;;;;15.30;13.70;;;;;;;10.67;100.00;94484.47;5096059;27;101876;-65
2022/04/24 05:42:49;;;;;;;17.70;14.33;;;;;;;10.76;100.00;94488.03;5073742;27;105157;-65
2022/04/24 05:45:18;;;;;;;16.13;13.50;;;;;;;10.85;100.00;94491.56;5093046;27;101808;-65
2022/04/24 05:47:46;;;;;;;14.93;13.33;;;;;;;11.08;100.00;94498.50;5093009;27;102364;-65
2022/04/24 05:50:14;;;;;;;16.93;13.70;;;;;;;11.15;100.00;94504.19;5092122;27;102833;-65
2022/04/24 05:52:41;;;;;;;15.80;13.07;;;;;;;11.36;100.00;94492.03;5074114;27;101826;-65
2022/04/24 05:55:09;;;;;;;13.87;12.33;;;;;;;11.48;100.00;94501.06;5073872;27;104977;-65
2022/04/24 05:57:39;;;;;;;12.60;11.30;;;;;;;11.66;100.00;94496.69;5073419;27;105833;-65
2022/04/24 06:00:07;;;;;;;14.20;11.40;;;;;;;11.78;100.00;94505.69;5091353;27;101888;-65
2022/04/24 06:02:39;;;;;;;13.90;11.83;;;;;;;11.78;100.00;94497.69;5092642;27;102132;-65
2022/04/24 06:05:07;;;;;;;11.90;10.70;;;;;;;11.74;100.00;94503.94;5072707;27;102260;-65
2022/04/24 06:07:34;;;;;;;13.03;11.63;;;;;;;11.91;100.00;94506.72;5090672;27;105338;-65
2022/04/24 06:10:00;;;;;;;12.77;11.33;;;;;;;11.99;100.00;94503.34;5073444;27;103929;-65
2022/04/24 06:12:27;;;;;;;13.00;11.63;;;;;;;12.09;100.00;94503.88;5073909;27;102098;-65
2022/04/24 06:15:03;;;;;;;11.93;10.73;;;;;;;12.34;100.00;94518.41;5091068;27;105321;-65
2022/04/24 06:17:31;;;;;;;11.70;10.50;;;;;;;12.04;100.00;94517.31;5073111;27;104379;-65
2022/04/24 06:19:58;;;;;;;11.17;9.93;;;;;;;12.18;100.00;94518.03;5059453;27;102003;-63
2022/04/24 06:22:25;;;;;;;12.40;11.10;;;;;;;12.58;100.00;94524.16;5052221;27;102366;-63
2022/04/24 06:24:52;;;;;;;11.23;9.67;;;;;;;12.57;100.00;94527.94;5069809;27;105171;-63
2022/04/24 06:27:19;;;;;;;10.93;9.83;;;;;;;12.74;100.00;94536.00;5052233;27;103372;-63
2022/04/24 06:29:46;;;;;;;10.60;9.50;;;;;;;12.67;100.00;94533.81;5067286;27;105878;-63
2022/04/24 06:32:15;;;;;;;11.20;10.10;;;;;;;12.87;100.00;94533.22;5050694;27;101981;-63
2022/04/24 06:34:42;;;;;;;10.63;9.57;;;;;;;12.99;100.00;94538.00;5049592;27;105292;-64
2022/04/24 06:37:09;;;;;;;10.27;9.23;;;;;;;12.78;100.00;94555.63;5049683;27;105017;-63
2022/04/24 06:39:35;;;;;;;10.47;9.37;;;;;;;12.62;100.00;94560.59;5067588;27;101953;-63
2022/04/24 06:42:02;;;;;;;10.97;9.87;;;;;;;12.59;100.00;94550.53;5050459;27;104996;-63
2022/04/24 06:44:29;;;;;;;11.20;10.00;;;;;;;12.56;100.00;94553.03;5050024;27;105590;-63
2022/04/24 06:46:56;;;;;;;11.33;10.03;;;;;;;12.65;100.00;94553.88;5052917;27;101821;-63
2022/04/24 06:49:25;;;;;;;10.80;9.70;;;;;;;12.69;100.00;94544.13;5048872;27;104187;-63
2022/04/24 06:51:52;;;;;;;12.07;9.27;;;;;;;12.58;100.00;94546.28;5050129;27;102032;-63
2022/04/24 06:54:18;;;;;;;10.70;9.60;;;;;;;12.64;100.00;94550.41;5067301;27;105028;-63
2022/04/24 06:56:46;;;;;;;10.17;9.17;;;;;;;12.69;100.00;94546.81;5066822;27;105785;-63
2022/04/24 06:59:13;;;;;;;11.90;9.63;;;;;;;12.66;100.00;94542.09;5067141;27;101917;-63
2022/04/24 07:01:39;;;;;;;10.33;8.97;;;;;;;12.97;100.00;94537.53;5066921;27;105440;-63
2022/04/24 07:04:06;;;;;;;10.93;9.17;;;;;;;13.01;100.00;94554.47;5049587;27;105300;-63
2022/04/24 07:06:35;;;;;;;11.07;9.97;;;;;;;12.93;100.00;94555.22;5053395;27;102497;-63
2022/04/24 07:09:02;;;;;;;10.37;9.30;;;;;;;13.12;100.00;94559.25;5048434;27;105472;-63
2022/04/24 07:11:29;;;;;;;10.47;9.23;;;;;;;12.97;100.00;94567.66;5067102;27;102246;-63
2022/04/24 07:13:56;;;;;;;10.73;9.53;;;;;;;12.92;100.00;94567.75;5051568;27;102417;-63
2022/04/24 07:16:22;;;;;;;12.80;9.63;;;;;;;12.59;100.00;94569.19;5050700;27;103042;-63
2022/04/24 07:18:50;;;;;;;11.00;9.90;;;;;;;12.53;100.00;94575.00;5050411;27;101894;-63
2022/04/24 07:21:17;;;;;;;11.13;9.80;;;;;;;12.53;100.00;94588.31;5073873;27;105181;-63
2022/04/24 07:23:46;;;;;;;10.63;9.53;;;;;;;12.47;100.00;94574.31;5090141;27;105703;-63
2022/04/24 07:26:13;;;;;;;9.77;8.77;;;;;;;12.79;100.00;94579.34;5091022;27;101953;-63
2022/04/24 07:28:39;;;;;;;10.00;8.67;;;;;;;13.09;100.00;94585.75;5076468;27;105216;-63
2022/04/24 07:31:07;;;;;;;10.30;9.20;;;;;;;13.20;100.00;94585.16;5073545;27;101889;-63
2022/04/24 07:33:33;;;;;;;10.40;8.93;;;;;;;13.26;100.00;94599.16;5073447;27;104102;-63
2022/04/24 07:36:01;;;;;;;9.57;8.63;;;;;;;13.10;100.00;94598.00;5072427;27;105456;-63
2022/04/24 07:38:27;;;;;;;9.70;8.70;;;;;;;13.23;100.00;94597.09;5090486;27;101854;-63
2022/04/24 07:40:56;;;;;;;10.03;9.03;;;;;;;13.47;100.00;94608.16;5073426;27;103822;-63
2022/04/24 07:43:22;;;;;;;9.93;8.60;;;;;;;13.74;100.00;94600.66;5072486;27;105939;-63
2022/04/24 07:45:49;;;;;;;10.43;8.77;;;;;;;14.04;100.00;94605.09;5073112;27;101883;-64
2022/04/24 07:48:18;;;;;;;10.50;8.93;;;;;;;13.89;100.00;94607.44;5073517;27;105502;-63
2022/04/24 07:50:48;;;;;;;9.30;8.40;;;;;;;14.04;100.00;94609.63;5076028;27;105188;-63
2022/04/24 07:53:16;;;;;;;10.83;8.83;;;;;;;14.14;100.00;94599.44;5091797;27;102481;-63
2022/04/24 07:55:44;;;;;;;9.70;8.17;;;;;;;14.48;100.00;94603.97;5072238;27;105407;-63
2022/04/24 07:58:13;;;;;;;9.60;8.60;;;;;;;14.74;100.00;94607.38;5091849;27;101925;-63
2022/04/24 08:00:41;;;;;;;8.90;8.00;;;;;;;15.15;100.00;94604.91;5072947;27;103572;-63
2022/04/24 08:03:10;;;;;;;9.03;8.10;;;;;;;14.84;100.00;94604.38;5072206;27;105771;-63
2022/04/24 08:05:39;;;;;;;9.17;8.27;;;;;;;15.01;100.00;94607.00;5091448;27;101851;-63
2022/04/24 08:08:09;;;;;;;8.37;7.57;;;;;;;15.12;100.00;94602.84;5091395;27;102548;-63
2022/04/24 08:10:38;;;;;;;8.43;7.37;;;;;;;15.34;100.00;94606.09;5090625;27;102134;-63
2022/04/24 08:13:05;;;;;;;7.20;6.50;;;;;;;14.96;100.00;94601.81;5093628;27;101844;-63
2022/04/24 08:15:34;;;;;;;5.63;5.13;;;;;;;14.70;100.00;94606.44;5090910;27;102513;-63
2022/04/24 08:18:02;;;;;;;5.93;5.37;;;;;;;14.43;100.00;94609.47;5072998;27;101938;-63
2022/04/24 08:20:30;;;;;;;4.90;4.40;;;;;;;14.58;100.00;94609.00;5090302;27;102607;-63
2022/04/24 08:22:59;;;;;;;4.50;4.10;;;;;;;14.76;100.00;94616.66;5090824;27;104191;-63
2022/04/24 08:25:27;;;;;;;3.83;3.53;;;;;;;14.73;100.00;94621.88;5091186;27;101922;-63
2022/04/24 08:27:56;;;;;;;4.30;3.50;;;;;;;14.83;100.00;94624.22;5090813;27;102337;-63
2022/04/24 08:30:25;;;;;;;4.03;3.30;;;;;;;14.98;100.00;94623.69;5090474;27;102791;-63
2022/04/24 08:32:53;;;;;;;3.90;3.60;;;;;;;14.65;100.00;94617.31;5072922;27;101980;-63
2022/04/24 08:35:21;;;;;;;3.40;3.10;;;;;;;14.90;100.00;94617.28;5093695;27;102322;-63
2022/04/24 08:37:49;;;;;;;2.93;2.70;;;;;;;14.76;100.00;94624.69;5072512;27;102050;-63
2022/04/24 08:40:17;;;;;;;2.53;2.33;;;;;;;15.10;100.00;94631.84;5090852;27;104093;-63
2022/04/24 08:42:44;;;;;;;1.43;1.33;;;;;;;15.21;100.00;94627.72;5071964;27;105141;-63
2022/04/24 08:45:13;;;;;;;1.30;1.20;;;;;;;15.18;99.46;94626.47;5091092;27;101856;-63
2022/04/24 08:47:41;;;;;;;1.30;1.20;;;;;;;15.26;97.66;94632.88;5072707;27;103619;-63
2022/04/24 08:50:11;;;;;;;1.20;1.10;;;;;;;15.00;96.44;94629.50;5090294;27;102561;-63
2022/04/24 08:52:38;;;;;;;1.37;1.27;;;;;;;15.09;97.88;94636.41;5072277;27;101836;-63
2022/04/24 08:55:06;;;;;;;1.33;1.10;;;;;;;14.87;96.39;94639.31;5072611;27;103630;-63
2022/04/24 08:57:33;;;;;;;1.00;1.00;;;;;;;14.84;96.47;94639.16;5075022;27;101923;-63
2022/04/24 09:00:01;;;;;;;1.20;1.20;;;;;;;14.97;98.07;94640.84;5089570;27;105046;-63
2022/04/24 09:02:29;;;;;;;1.60;1.50;;;;;;;15.03;98.38;94640.34;5071930;27;105222;-63
2022/04/24 09:04:57;;;;;;;1.63;1.53;;;;;;;14.87;100.00;94638.53;5071901;27;102215;-63
2022/04/24 09:07:32;;;;;;;1.50;1.40;;;;;;;14.88;98.44;94640.09;5089418;27;104931;-63
2022/04/24 09:10:01;;;;;;;1.50;1.40;;;;;;;14.97;96.28;94641.63;5090437;27;102534;-63
2022/04/24 09:12:28;;;;;;;1.40;1.30;;;;;;;14.75;95.52;94643.72;5090974;27;101733;-63
2022/04/24 09:14:57;;;;;;;1.27;1.20;;;;;;;14.75;90.22;94646.41;5090853;27;102539;-63
2022/04/24 09:17:26;;;;;;;1.20;1.10;;;;;;;14.59;92.38;94648.00;5093792;27;102694;-63
2022/04/24 09:19:55;;;;;;;1.27;1.23;;;;;;;14.54;90.59;94656.19;5071277;27;104135;-64
2022/04/24 09:22:22;;;;;;;1.50;1.40;;;;;;;14.54;91.20;94646.28;5090113;27;102674;-63
2022/04/24 09:24:55;;;;;;;1.30;1.20;;;;;;;14.60;89.65;94647.69;5072054;27;102034;-63
2022/04/24 09:27:24;;;;;;;1.00;1.00;;;;;;;14.58;88.14;94651.78;5071848;27;103903;-63
2022/04/24 09:29:54;;;;;;;1.50;1.40;;;;;;;14.43;86.52;94660.28;5088671;27;105732;-63
2022/04/24 09:32:21;;;;;;;1.40;1.30;;;;;;;14.41;88.91;94657.16;5090093;27;101843;-63
2022/04/24 09:34:49;;;;;;;1.13;0.93;;;;;;;14.50;89.35;94657.94;5071513;27;105472;-63
2022/04/24 09:37:17;;;;;;;2.33;1.60;;;;;;;14.57;86.14;94667.06;5071203;27;103995;-63
2022/04/24 09:39:44;;;;;;;3.03;2.00;;;;;;;14.65;87.26;94666.25;5075634;27;101961;-63
2022/04/24 09:42:14;;;;;;;0.80;0.80;;;;;;;14.51;94.28;94664.88;5074585;27;105589;-63
2022/04/24 09:44:43;;;;;;;2.80;1.13;;;;;;;14.48;100.00;94668.97;5094126;27;101797;-63
2022/04/24 09:47:11;;;;;;;0.60;0.60;;;;;;;14.21;100.00;94665.81;5093860;27;103215;-63
2022/04/24 09:49:40;;;;;;;0.50;0.50;;;;;;;14.09;100.00;94662.94;5093237;27;102523;-63
2022/04/24 09:52:11;;;;;;;0.50;0.50;;;;;;;14.06;100.00;94666.25;5093824;27;101820;-63
2022/04/24 09:54:43;;;;;;;0.40;0.40;;;;;;;13.89;100.00;94676.91;5093998;27;102500;-63
2022/04/24 09:57:12;;;;;;;0.60;0.60;;;;;;;13.78;100.00;94678.28;5073979;27;105300;-63
2022/04/24 09:59:41;;;;;;;0.80;0.80;;;;;;;13.66;100.00;94678.09;5092317;27;101975;-63
2022/04/24 10:02:09;;;;;;;0.63;0.60;;;;;;;13.65;100.00;94680.00;5095228;27;105342;-64
2022/04/24 10:04:38;;;;;;;0.60;0.50;;;;;;;13.51;100.00;94684.66;5075159;27;101873;-64
2022/04/24 10:07:07;;;;;;;0.70;0.60;;;;;;;13.31;100.00;94690.53;5074782;27;106100;-64
2022/04/24 10:09:35;;;;;;;0.83;0.60;;;;;;;13.19;100.00;94703.69;5074204;27;105089;-63
2022/04/24 10:12:05;;;;;;;0.40;0.40;;;;;;;13.16;100.00;94696.31;5074781;27;101980;-63
2022/04/24 10:14:38;;;;;;;0.83;0.80;;;;;;;13.20;100.00;94699.91;5093413;27;102220;-63
2022/04/24 10:17:26;;;;;;;1.40;0.80;;;;;;;13.27;100.00;94694.94;5092627;27;102515;-63
2022/04/24 10:20:09;;;;;;;0.80;0.80;;;;;;;13.47;100.00;94694.38;5092538;27;102052;-63
2022/04/24 10:22:39;;;;;;;0.80;0.80;;;;;;;13.87;100.00;94705.81;5093676;27;102364;-63
2022/04/24 10:25:08;;;;;;;0.90;0.87;;;;;;;14.21;100.00;94695.22;5096114;27;102726;-63
2022/04/24 10:27:42;;;;;;;1.20;0.80;;;;;;;14.55;100.00;94693.34;5074853;27;104472;-64
2022/04/24 10:30:13;;;;;;;0.60;0.60;;;;;;;15.16;100.00;94682.19;5092293;27;102637;-63
2022/04/24 10:32:44;;;;;;;0.40;0.40;;;;;;;15.34;100.00;94681.09;5093330;27;101745;-64
2022/04/24 10:35:19;;;;;;;0.50;0.50;;;;;;;15.89;100.00;94694.38;5093218;27;102609;-64
2022/04/24 10:37:47;;;;;;;0.50;0.50;;;;;;;16.05;100.00;94695.38;5073417;27;105350;-63
2022/04/24 10:40:16;;;;;;;0.40;0.40;;;;;;;15.64;100.00;94703.34;5074375;27;102060;-63
2022/04/24 10:42:44;;;;;;;0.40;0.40;;;;;;;15.57;100.00;94703.84;5093135;27;102313;-64
2022/04/24 10:45:15;;;;;;;0.50;0.50;;;;;;;15.52;100.00;94697.84;5090955;27;105201;-63
2022/04/24 10:47:55;;;;;;;1.27;0.97;;;;;;;15.25;100.00;94704.38;5096658;27;101696;-64
2022/04/24 10:50:23;;;;;;;1.37;1.27;;;;;;;14.98;100.00;94709.34;5092128;27;103266;-64
2022/04/24 10:52:53;;;;;;;1.33;1.20;;;;;;;14.47;100.00;94714.72;5074099;27;101855;-63
2022/04/24 10:55:25;;;;;;;1.27;1.17;;;;;;;13.12;100.00;94738.03;5074802;27;102670;-64
2022/04/24 10:57:57;;;;;;;0.67;0.67;;;;;;;13.01;100.00;94731.38;5073612;27;103863;-63
2022/04/24 11:00:32;;;;;;;0.50;0.50;;;;;;;12.74;100.00;94738.69;5092806;27;101884;-64
2022/04/24 11:03:07;;;;;;;0.80;0.80;;;;;;;12.39;100.00;94743.00;5092587;27;102423;-64
2022/04/24 11:05:37;;;;;;;0.90;0.70;;;;;;;12.60;100.00;94749.41;5091964;27;102702;-63
2022/04/24 11:08:06;;;;;;;1.63;1.53;;;;;;;12.65;100.00;94737.84;5095722;27;101973;-63
2022/04/24 11:10:40;;;;;;;0.73;0.47;;;;;;;12.60;100.00;94745.97;5073216;27;105899;-63
2022/04/24 11:13:10;;;;;;;0.40;0.40;;;;;;;12.53;100.00;94745.63;5092578;27;101859;-63
2022/04/24 11:15:42;;;;;;;1.40;1.40;;;;;;;12.50;100.00;94756.88;5073493;27;106092;-63
2022/04/24 11:18:18;;;;;;;1.43;0.60;;;;;;;12.65;100.00;94754.63;5091965;27;102907;-64